Time;durP1;ratioP1;P1;durP2;ratioP2;P2;SDS_P1;SDS_P2;PMS_P1;PMS_P2;Temp;Humidity;BMP_temperature;BMP_pressure;BME280_temperature;BME280_humidity;BME280_pressure;Samples;Min_cycle;Max_cycle;Signal;HPM_P1;HPM_P2
2022/09/12 00:02:21;;;;;;;26.00;19.67;;;;;;;12.63;100.00;163866.25;4993253;28;20033;-63
2022/09/12 00:04:46;;;;;;;26.33;18.50;;;;;;;12.61;100.00;163862.22;4991945;28;20042;-63
2022/09/12 00:07:12;;;;;;;26.38;20.13;;;;;;;12.60;100.00;163858.13;4992798;28;20554;-63
2022/09/12 00:09:38;;;;;;;22.38;19.73;;;;;;;12.57;100.00;163851.38;4991635;28;20072;-63
2022/09/12 00:12:03;;;;;;;21.13;19.10;;;;;;;12.56;100.00;163848.66;4992965;28;20067;-63
2022/09/12 00:14:29;;;;;;;22.38;20.20;;;;;;;12.49;100.00;163829.75;4991348;28;20042;-63
2022/09/12 00:16:58;;;;;;;28.60;20.05;;;;;;;12.47;100.00;163824.38;4993126;28;20026;-64
2022/09/12 00:19:23;;;;;;;20.63;17.75;;;;;;;12.43;100.00;163813.53;4991924;28;20121;-63
2022/09/12 00:21:48;;;;;;;27.90;21.75;;;;;;;12.45;100.00;163818.97;4992672;28;20014;-64
2022/09/12 00:24:14;;;;;;;28.80;22.85;;;;;;;12.46;100.00;163821.66;4991250;28;20089;-64
2022/09/12 00:26:39;;;;;;;41.05;23.63;;;;;;;12.41;100.00;163808.13;4992695;28;20026;-64
2022/09/12 00:29:05;;;;;;;19.90;14.90;;;;;;;12.37;100.00;163798.66;4990781;28;20403;-63
2022/09/12 00:31:30;;;;;;;31.15;25.48;;;;;;;12.34;100.00;163791.91;4992700;28;20037;-63
2022/09/12 00:33:57;;;;;;;27.92;23.92;;;;;;;12.33;100.00;163787.88;4991147;28;20401;-64
2022/09/12 00:36:24;;;;;;;40.00;28.98;;;;;;;12.32;100.00;163786.50;4992749;28;20040;-63
2022/09/12 00:38:50;;;;;;;84.80;26.88;;;;;;;12.28;100.00;163774.38;4991192;28;20035;-63
2022/09/12 00:41:36;;;;;;;103.93;16.55;;;;;;;12.25;100.00;163767.59;4992555;28;20108;-63
2022/09/12 00:44:11;;;;;;;18.85;17.13;;;;;;;12.18;100.00;163750.03;4990823;28;20042;-64
2022/09/12 00:46:47;;;;;;;28.63;23.20;;;;;;;12.14;100.00;163737.88;4992563;28;20053;-63
2022/09/12 00:49:18;;;;;;;38.65;17.88;;;;;;;12.13;100.00;163735.16;4990945;28;20470;-63
2022/09/12 00:51:51;;;;;;;23.23;20.42;;;;;;;12.11;100.00;163729.75;4991600;28;20101;-63
2022/09/12 00:54:24;;;;;;;19.60;17.48;;;;;;;12.02;100.00;163708.19;4990931;28;20046;-64
2022/09/12 00:56:54;;;;;;;22.58;19.80;;;;;;;12.08;100.00;163723.00;4992450;28;20084;-64
2022/09/12 00:59:26;;;;;;;23.90;21.27;;;;;;;12.09;100.00;163724.38;4990554;28;20038;-64
2022/09/12 01:01:52;;;;;;;30.90;22.77;;;;;;;12.10;100.00;163727.09;4992324;28;20200;-64
2022/09/12 01:04:20;;;;;;;29.65;23.58;;;;;;;12.11;100.00;163729.75;4991114;28;20038;-64
2022/09/12 01:06:47;;;;;;;;;;;;;;;12.10;100.00;163727.09;4992645;28;20076;-64
2022/09/12 01:09:18;;;;;;;28.98;20.48;;;;;;;12.08;100.00;163721.69;4990346;28;19917;-64
2022/09/12 01:11:45;;;;;;;28.45;23.83;;;;;;;12.00;100.00;163701.38;4992165;28;20085;-64
2022/09/12 01:14:12;;;;;;;29.05;22.48;;;;;;;12.04;100.00;163713.56;4990141;28;20943;-64
2022/09/12 01:16:37;;;;;;;37.42;26.40;;;;;;;12.00;100.00;163701.38;4992167;28;20023;-64
2022/09/12 01:19:21;;;;;;;32.95;25.70;;;;;;;11.91;100.00;163679.72;4990377;28;20398;-64
2022/09/12 01:22:05;;;;;;;26.67;22.95;;;;;;;11.89;100.00;163672.97;4991749;28;20049;-64
2022/09/12 01:24:51;;;;;;;31.45;23.52;;;;;;;11.87;100.00;163668.94;4990430;28;20046;-64
2022/09/12 01:27:39;;;;;;;29.30;24.70;;;;;;;11.85;100.00;163662.19;4991967;28;20034;-64
2022/09/12 01:30:15;;;;;;;34.47;26.58;;;;;;;11.85;100.00;163663.50;4989892;28;20082;-64
2022/09/12 01:33:12;;;;;;;36.50;29.70;;;;;;;11.85;100.00;163663.50;4992195;28;20034;-65
2022/09/12 01:36:02;;;;;;;36.97;29.08;;;;;;;11.83;100.00;163658.16;4989649;28;20068;-65
2022/09/12 01:38:41;;;;;;;35.35;25.65;;;;;;;11.84;100.00;163659.47;4991774;28;20237;-65
2022/09/12 01:41:21;;;;;;;36.63;29.30;;;;;;;11.85;100.00;163663.50;4990270;28;20035;-65
2022/09/12 01:43:50;;;;;;;37.92;30.13;;;;;;;11.85;100.00;163662.19;4990063;28;20031;-65
2022/09/12 01:46:51;;;;;;;38.88;26.70;;;;;;;11.81;100.00;163652.72;4991740;28;20026;-65
2022/09/12 01:49:31;;;;;;;34.17;25.58;;;;;;;11.77;100.00;163641.88;4990171;28;20038;-65
2022/09/12 01:52:03;;;;;;;33.85;24.85;;;;;;;11.73;100.00;163632.44;4991212;28;20033;-63
2022/09/12 01:54:38;;;;;;;27.95;22.58;;;;;;;11.71;100.00;163627.06;4990170;28;20093;-63
2022/09/12 01:57:16;;;;;;;30.20;24.25;;;;;;;11.64;100.00;163608.16;4991329;28;20045;-63
2022/09/12 01:59:47;;;;;;;54.83;27.30;;;;;;;11.60;100.00;163597.31;4990266;28;20154;-64
2022/09/12 02:02:32;;;;;;;30.50;23.23;;;;;;;11.56;100.00;163586.53;4991611;28;20069;-64
2022/09/12 02:05:07;;;;;;;30.80;21.10;;;;;;;11.53;100.00;163579.81;4992833;28;20520;-63
2022/09/12 02:07:36;;;;;;;21.27;17.55;;;;;;;11.51;100.00;163573.00;4995578;28;20378;-63
2022/09/12 02:10:12;;;;;;;25.13;19.98;;;;;;;11.48;100.00;163566.25;4993785;28;20038;-63
2022/09/12 02:12:45;;;;;;;35.13;24.05;;;;;;;11.49;100.00;163567.63;4995162;28;20057;-63
2022/09/12 02:15:12;;;;;;;30.92;24.90;;;;;;;11.47;100.00;163563.56;4993755;28;20048;-63
2022/09/12 02:17:42;;;;;;;33.17;28.00;;;;;;;11.45;100.00;163558.19;4995395;28;20027;-63
2022/09/12 02:20:19;;;;;;;34.78;27.48;;;;;;;11.45;100.00;163558.19;4993302;28;20042;-63
2022/09/12 02:22:47;;;;;;;33.90;27.70;;;;;;;11.39;100.00;163543.31;4994898;28;20022;-63
2022/09/12 02:25:16;;;;;;;34.97;26.70;;;;;;;11.41;100.00;163547.34;4993645;28;20522;-63
2022/09/12 02:27:47;;;;;;;35.13;25.63;;;;;;;11.39;100.00;163543.31;4994974;28;20026;-63
2022/09/12 02:30:18;;;;;;;33.97;26.27;;;;;;;11.40;100.00;163546.03;4993498;28;20414;-63
2022/09/12 02:32:53;;;;;;;37.60;28.25;;;;;;;11.40;100.00;163544.66;4995362;28;20018;-63
2022/09/12 02:35:31;;;;;;;23.23;19.48;;;;;;;11.37;100.00;163536.56;4993158;28;20050;-63
2022/09/12 02:38:04;;;;;;;30.00;22.80;;;;;;;11.33;100.00;163525.75;4994864;28;20101;-62
2022/09/12 02:40:30;;;;;;;27.95;20.40;;;;;;;11.28;100.00;163513.63;4993611;28;20513;-61
2022/09/12 02:42:55;;;;;;;27.70;21.17;;;;;;;11.24;100.00;163502.81;4994189;28;20145;-63
2022/09/12 02:45:22;;;;;;;26.25;20.90;;;;;;;11.19;100.00;163489.31;4993341;28;20042;-63
2022/09/12 02:48:01;;;;;;;25.50;21.33;;;;;;;11.13;100.00;163473.13;4994743;28;20030;-63
2022/09/12 02:50:27;;;;;;;34.35;26.63;;;;;;;11.14;100.00;163475.78;4993021;28;20053;-63
2022/09/12 02:52:54;;;;;;;31.75;26.80;;;;;;;11.20;100.00;163492.03;4994744;28;20022;-63
2022/09/12 02:55:20;;;;;;;33.90;27.85;;;;;;;11.16;100.00;163481.19;4993194;28;20054;-63
2022/09/12 02:57:45;;;;;;;24.00;18.40;;;;;;;11.16;100.00;163481.19;4994539;28;20057;-63
2022/09/12 03:00:12;;;;;;;22.65;19.40;;;;;;;11.05;100.00;163452.84;4992516;28;20042;-63
2022/09/12 03:02:43;;;;;;;29.15;22.48;;;;;;;11.04;100.00;163450.13;4994606;28;20093;-63
2022/09/12 03:05:30;;;;;;;33.45;24.90;;;;;;;11.03;100.00;163447.44;4992629;28;20046;-63
2022/09/12 03:08:06;;;;;;;27.83;23.42;;;;;;;11.03;100.00;163448.81;4994047;28;20033;-63
2022/09/12 03:11:03;;;;;;;18.88;16.38;;;;;;;10.99;100.00;163437.97;4993132;28;20042;-66
2022/09/12 03:13:46;;;;;;;24.92;20.48;;;;;;;10.97;100.00;163431.22;4992870;28;20106;-63
2022/09/12 03:16:45;;;;;;;33.55;24.58;;;;;;;10.94;100.00;163424.50;4992932;28;20052;-64
2022/09/12 03:19:19;;;;;;;31.92;25.85;;;;;;;10.93;100.00;163421.78;4992294;28;21055;-64
2022/09/12 03:21:54;;;;;;;216.57;22.73;;;;;;;10.89;100.00;163412.34;4994211;28;20028;-64
2022/09/12 03:24:28;;;;;;;23.33;19.52;;;;;;;10.82;100.00;163392.09;4992999;28;20419;-64
2022/09/12 03:27:16;;;;;;;26.55;22.02;;;;;;;10.77;100.00;163379.94;4993566;28;20474;-64
2022/09/12 03:29:42;;;;;;;;;;;;;;;10.82;100.00;163392.09;4992469;28;20054;-63
2022/09/12 03:32:07;;;;;;;82.90;18.77;;;;;;;10.77;100.00;163381.28;4993873;28;19920;-65
2022/09/12 03:34:33;;;;;;;45.53;17.65;;;;;;;10.77;100.00;163381.28;4992241;28;20038;-65
2022/09/12 03:36:58;;;;;;;19.85;16.05;;;;;;;10.73;100.00;163370.50;4993489;28;20093;-65
2022/09/12 03:39:25;;;;;;;26.08;20.05;;;;;;;10.73;100.00;163370.50;4992549;28;20035;-64
2022/09/12 03:41:51;;;;;;;22.40;19.85;;;;;;;10.69;100.00;163359.66;4993770;28;20033;-64
2022/09/12 03:44:17;;;;;;;30.48;22.45;;;;;;;10.66;100.00;163351.59;4991998;28;20050;-64
2022/09/12 03:46:42;;;;;;;36.78;26.13;;;;;;;10.67;100.00;163354.31;4993728;28;20018;-65
2022/09/12 03:49:07;;;;;;;40.15;28.13;;;;;;;10.71;100.00;163365.09;4991742;28;20041;-65
2022/09/12 03:51:33;;;;;;;33.33;25.30;;;;;;;10.71;100.00;163363.75;4993583;28;20034;-64
2022/09/12 03:53:58;;;;;;;25.58;18.95;;;;;;;10.69;100.00;163359.66;4991958;28;20042;-64
2022/09/12 03:56:24;;;;;;;44.60;19.90;;;;;;;10.64;100.00;163346.19;4993114;28;20030;-65
2022/09/12 03:58:49;;;;;;;28.05;20.10;;;;;;;10.56;100.00;163324.59;4991877;28;20583;-64
2022/09/12 04:01:16;;;;;;;24.27;18.70;;;;;;;10.57;100.00;163327.28;4993291;28;20018;-63
2022/09/12 04:03:44;;;;;;;42.47;20.27;;;;;;;10.56;100.00;163324.59;4991844;28;20026;-64
2022/09/12 04:06:13;;;;;;;28.88;19.98;;;;;;;10.54;100.00;163320.56;4993178;28;20022;-64
2022/09/12 04:08:39;;;;;;;32.50;22.38;;;;;;;10.54;100.00;163320.56;4992154;28;20027;-64
2022/09/12 04:11:13;;;;;;;30.23;22.83;;;;;;;10.52;100.00;163313.81;4992866;28;20366;-64
2022/09/12 04:13:40;;;;;;;35.47;24.55;;;;;;;10.53;100.00;163317.84;4990978;28;20045;-60
2022/09/12 04:16:06;;;;;;;41.58;29.83;;;;;;;10.47;100.00;163303.00;4992798;28;20081;-60
2022/09/12 04:18:31;;;;;;;53.70;32.78;;;;;;;10.50;100.00;163308.41;4991368;28;20544;-60
2022/09/12 04:20:57;;;;;;;57.05;35.42;;;;;;;10.48;100.00;163305.69;4992872;28;20026;-60
2022/09/12 04:23:23;;;;;;;55.72;35.72;;;;;;;10.57;100.00;163327.28;4992395;28;20486;-60
2022/09/12 04:25:55;;;;;;;57.58;33.97;;;;;;;10.60;100.00;163335.41;4991366;28;20074;-60
2022/09/12 04:28:21;;;;;;;43.83;30.42;;;;;;;10.63;100.00;163343.50;4992888;28;20034;-60
2022/09/12 04:30:47;;;;;;;38.97;25.80;;;;;;;10.63;100.00;163343.50;4991185;28;20406;-60
2022/09/12 04:33:13;;;;;;;55.10;28.75;;;;;;;10.64;100.00;163346.19;4992186;28;20026;-60
2022/09/12 04:35:38;;;;;;;54.47;35.00;;;;;;;10.65;100.00;163348.91;4991426;28;20421;-60
2022/09/12 04:38:03;;;;;;;58.42;35.65;;;;;;;10.69;100.00;163359.66;4992310;28;20026;-60
2022/09/12 04:40:30;;;;;;;54.95;36.47;;;;;;;10.73;100.00;163370.50;4990801;28;20050;-60
2022/09/12 04:42:55;;;;;;;104.32;30.35;;;;;;;10.75;100.00;163375.91;4991759;28;20032;-60
2022/09/12 04:45:21;;;;;;;106.53;26.95;;;;;;;10.74;100.00;163371.84;4989967;28;20038;-63
2022/09/12 04:47:47;;;;;;;43.97;32.70;;;;;;;10.68;100.00;163355.63;4992444;28;20386;-64
2022/09/12 04:50:13;;;;;;;47.65;33.50;;;;;;;10.68;100.00;163357.03;4990826;28;20042;-66
2022/09/12 04:52:39;;;;;;;63.85;37.22;;;;;;;10.71;100.00;163365.09;4992559;28;20049;-66
2022/09/12 04:55:05;;;;;;;80.47;45.25;;;;;;;10.76;100.00;163377.25;4990410;28;20498;-66
2022/09/12 04:57:30;;;;;;;87.47;48.38;;;;;;;10.83;100.00;163394.81;4992553;28;20041;-66
2022/09/12 04:59:56;;;;;;;65.32;39.70;;;;;;;10.96;100.00;163429.91;4990797;28;20045;-66
2022/09/12 05:02:21;;;;;;;78.72;42.95;;;;;;;10.98;100.00;163435.31;4991939;28;20030;-66
2022/09/12 05:04:46;;;;;;;61.40;38.60;;;;;;;11.00;100.00;163440.69;4990940;28;20039;-66
2022/09/12 05:07:12;;;;;;;64.68;41.70;;;;;;;10.99;100.00;163436.66;4991995;28;20800;-67
2022/09/12 05:09:37;;;;;;;63.00;40.05;;;;;;;11.04;100.00;163451.50;4990537;28;20035;-66
2022/09/12 05:12:03;;;;;;;67.80;41.20;;;;;;;11.05;100.00;163454.22;4991892;28;20019;-66
2022/09/12 05:14:28;;;;;;;68.80;38.45;;;;;;;11.07;100.00;163459.59;4990808;28;20057;-66
2022/09/12 05:16:58;;;;;;;53.90;35.55;;;;;;;11.08;100.00;163462.28;4991983;28;20018;-64
2022/09/12 05:19:23;;;;;;;66.15;39.30;;;;;;;11.09;100.00;163465.00;4990873;28;20042;-64
2022/09/12 05:21:49;;;;;;;63.83;41.50;;;;;;;11.14;100.00;163477.16;4992049;28;20031;-64
2022/09/12 05:24:14;;;;;;;82.93;49.58;;;;;;;11.19;100.00;163490.63;4990270;28;20061;-64
2022/09/12 05:26:39;;;;;;;98.10;49.28;;;;;;;11.30;100.00;163519.00;4992297;28;20030;-64
2022/09/12 05:29:05;;;;;;;99.95;51.22;;;;;;;11.41;100.00;163548.75;4990248;28;20034;-65
2022/09/12 05:31:31;;;;;;;100.47;53.20;;;;;;;11.53;100.00;163578.41;4991884;28;20026;-64
2022/09/12 05:33:56;;;;;;;93.07;52.70;;;;;;;11.67;100.00;163614.91;4991371;28;20385;-62
2022/09/12 05:36:24;;;;;;;94.90;53.58;;;;;;;11.77;100.00;163640.56;4990435;28;20050;-62
2022/09/12 05:38:50;;;;;;;98.38;55.22;;;;;;;11.86;100.00;163664.91;4991356;28;20359;-60
2022/09/12 05:41:17;;;;;;;93.50;51.60;;;;;;;11.97;100.00;163694.63;4989142;28;20045;-59
2022/09/12 05:43:44;;;;;;;92.75;52.13;;;;;;;12.08;100.00;163721.69;4991913;28;20109;-59
2022/09/12 05:46:14;;;;;;;84.22;50.63;;;;;;;12.20;100.00;163754.09;4990065;28;20045;-58
2022/09/12 05:48:41;;;;;;;83.57;53.22;;;;;;;12.33;100.00;163789.22;4991294;28;20030;-59
2022/09/12 05:51:12;;;;;;;79.63;48.60;;;;;;;12.44;100.00;163816.25;4989941;28;20038;-59
2022/09/12 05:53:39;;;;;;;74.50;46.60;;;;;;;12.51;100.00;163835.16;4991754;28;20160;-59
2022/09/12 05:56:10;;;;;;;73.78;47.05;;;;;;;12.67;100.00;163878.44;4989514;28;20497;-59
2022/09/12 05:58:38;;;;;;;84.63;48.92;;;;;;;12.80;100.00;163910.84;4991646;28;20125;-59
2022/09/12 06:01:07;;;;;;;79.07;49.88;;;;;;;12.91;100.00;163940.63;4989896;28;20044;-59
2022/09/12 06:03:38;;;;;;;80.80;45.53;;;;;;;13.01;100.00;163967.63;5006479;28;20034;-59
2022/09/12 06:06:05;;;;;;;66.85;46.50;;;;;;;13.12;100.00;163996.00;4990095;28;20049;-59
2022/09/12 06:08:32;;;;;;;68.53;44.75;;;;;;;13.14;100.00;164001.41;4991792;28;20033;-59
2022/09/12 06:10:59;;;;;;;70.25;43.03;;;;;;;13.22;100.00;164021.69;4989571;28;20461;-59
2022/09/12 06:13:25;;;;;;;71.88;44.53;;;;;;;13.26;100.00;164031.16;4991516;28;20037;-59
2022/09/12 06:15:50;;;;;;;65.10;40.97;;;;;;;13.37;100.00;164060.91;4990156;28;20043;-59
2022/09/12 06:18:15;;;;;;;61.35;41.50;;;;;;;13.41;100.00;164070.44;4991131;28;20376;-59
2022/09/12 06:20:41;;;;;;;66.57;43.63;;;;;;;13.50;100.00;164094.78;4989855;28;20046;-59
2022/09/12 06:23:06;;;;;;;56.95;39.63;;;;;;;13.47;100.00;164086.66;4991229;28;20405;-58
2022/09/12 06:25:31;;;;;;;63.00;40.13;;;;;;;13.54;100.00;164105.56;4989649;28;20053;-58
2022/09/12 06:27:57;;;;;;;61.78;40.03;;;;;;;13.54;100.00;164105.56;4991437;28;20026;-58
2022/09/12 06:30:22;;;;;;;60.47;39.42;;;;;;;13.70;100.00;164146.16;4989771;28;20420;-58
2022/09/12 06:32:48;;;;;;;58.10;38.88;;;;;;;13.74;100.00;164158.31;4991115;28;20038;-58
2022/09/12 06:35:13;;;;;;;60.22;40.25;;;;;;;13.77;100.00;164166.47;4989521;28;20045;-58
2022/09/12 06:37:39;;;;;;;56.33;39.47;;;;;;;13.85;100.00;164185.41;4991223;28;20486;-57
2022/09/12 06:40:08;;;;;;;57.35;38.92;;;;;;;13.90;100.00;164200.25;4989367;28;20034;-58
2022/09/12 06:42:34;;;;;;;60.35;42.58;;;;;;;13.98;100.00;164219.16;4991322;28;20113;-58
2022/09/12 06:44:59;;;;;;;57.30;38.67;;;;;;;14.07;100.00;164243.53;4987838;28;20049;-58
2022/09/12 06:47:24;;;;;;;53.78;38.10;;;;;;;14.16;100.00;164267.88;5000708;28;20026;-58
2022/09/12 06:49:50;;;;;;;58.65;38.78;;;;;;;14.26;100.00;164294.91;5009192;28;20049;-58
2022/09/12 06:52:16;;;;;;;58.50;36.22;;;;;;;14.39;100.00;164327.41;5003178;28;20434;-57
2022/09/12 06:54:42;;;;;;;57.10;36.28;;;;;;;14.46;100.00;164344.97;4993053;28;20046;-58
2022/09/12 06:57:07;;;;;;;49.63;33.75;;;;;;;14.54;100.00;164368.00;4994219;28;20065;-58
2022/09/12 06:59:33;;;;;;;50.63;36.13;;;;;;;14.55;100.00;164370.72;4993209;28;20053;-58
2022/09/12 07:01:58;;;;;;;51.97;35.42;;;;;;;14.56;100.00;164373.38;4994170;28;20025;-58
2022/09/12 07:04:23;;;;;;;52.08;37.55;;;;;;;14.60;100.00;164384.25;4992865;28;20402;-58
2022/09/12 07:06:49;;;;;;;54.80;36.15;;;;;;;14.47;100.00;164349.06;4994450;28;20034;-58
2022/09/12 07:09:17;;;;;;;52.63;37.55;;;;;;;14.66;100.00;164397.81;4992529;28;20046;-58
2022/09/12 07:11:44;;;;;;;43.60;35.75;;;;;;;14.73;100.00;164416.75;4994173;28;20030;-58
2022/09/12 07:14:12;;;;;;;56.60;35.67;;;;;;;14.79;100.00;164432.97;4992947;28;20034;-58
2022/09/12 07:16:38;;;;;;;47.17;34.22;;;;;;;14.84;100.00;164445.16;4993812;28;20606;-58
2022/09/12 07:19:05;;;;;;;49.83;35.70;;;;;;;14.84;100.00;164445.16;4992531;28;20045;-58
2022/09/12 07:21:31;;;;;;;49.55;35.83;;;;;;;14.97;100.00;164480.34;4994431;28;20025;-58
2022/09/12 07:23:57;;;;;;;50.53;33.42;;;;;;;15.01;100.00;164489.81;4992386;28;20034;-58
2022/09/12 07:26:23;;;;;;;47.17;32.10;;;;;;;15.04;100.00;164497.94;4994155;28;20038;-58
2022/09/12 07:28:52;;;;;;;39.50;32.13;;;;;;;15.14;100.00;164525.03;4992677;28;20105;-58
2022/09/12 07:31:18;;;;;;;;;;;;;;;15.25;100.00;164552.09;4993566;28;20081;-58
2022/09/12 07:33:43;;;;;;;50.15;34.22;;;;;;;15.23;100.00;164548.03;4992634;28;19949;-58
2022/09/12 07:36:14;;;;;;;50.08;32.97;;;;;;;15.33;100.00;164573.75;4993600;28;20108;-58
2022/09/12 07:38:40;;;;;;;47.53;33.55;;;;;;;15.33;100.00;164573.75;4992168;28;20065;-58
2022/09/12 07:41:19;;;;;;;44.72;33.13;;;;;;;15.45;100.00;164606.22;4993527;28;20058;-58
2022/09/12 07:43:45;;;;;;;49.22;34.58;;;;;;;15.58;100.00;164640.06;4992754;28;20105;-58
2022/09/12 07:46:11;;;;;;;51.70;33.38;;;;;;;15.63;100.00;164653.66;4989931;28;20415;-58
2022/09/12 07:48:37;;;;;;;42.78;31.63;;;;;;;15.63;100.00;164653.66;4992025;28;20018;-58
2022/09/12 07:51:06;;;;;;;47.50;32.75;;;;;;;15.90;100.00;164722.75;4992976;28;20033;-58
2022/09/12 07:53:39;;;;;;;36.83;28.60;;;;;;;16.01;100.00;164752.53;4991401;28;20492;-58
2022/09/12 07:56:06;;;;;;;41.90;29.75;;;;;;;16.15;100.00;164790.44;4992919;28;20030;-60
2022/09/12 07:58:34;;;;;;;40.95;30.33;;;;;;;-145.91;100.00;94795.00;4988999;28;20022;-60
2022/09/12 08:01:08;;;;;;;44.72;29.95;;;;;;;16.57;100.00;164898.81;4992456;28;20018;-59
2022/09/12 08:03:37;;;;;;;32.97;26.20;;;;;;;16.73;100.00;164942.13;4991935;28;20023;-60
2022/09/12 08:06:11;;;;;;;33.35;27.88;;;;;;;16.77;100.00;164953.00;4992837;28;20026;-59
2022/09/12 08:08:37;;;;;;;36.05;27.35;;;;;;;16.78;100.00;164955.72;4975654;28;20038;-60
2022/09/12 08:11:12;;;;;;;35.58;24.75;;;;;;;16.89;100.00;164982.78;4993063;28;20057;-60
2022/09/12 08:13:39;;;;;;;39.72;26.17;;;;;;;17.21;100.00;165066.84;4991756;28;20613;-60
2022/09/12 08:16:16;;;;;;;38.47;26.75;;;;;;;17.38;100.00;165112.94;4992455;28;20037;-60
2022/09/12 08:18:42;;;;;;;30.80;24.10;;;;;;;17.55;100.00;165156.28;4990895;28;20026;-60
2022/09/12 08:21:13;;;;;;;35.42;26.40;;;;;;;17.72;100.00;165202.38;4989848;28;20109;-60
2022/09/12 08:23:39;;;;;;;31.92;25.60;;;;;;;17.96;100.00;165264.78;4990158;28;20030;-60
2022/09/12 08:26:05;;;;;;;31.05;25.90;;;;;;;18.28;100.00;165348.81;4993067;28;20028;-60
2022/09/12 08:28:33;;;;;;;33.22;23.90;;;;;;;18.38;100.00;165375.94;4991342;28;20029;-60
2022/09/12 08:31:02;;;;;;;37.33;24.60;;;;;;;18.37;100.00;165373.22;4991948;28;20132;-60
2022/09/12 08:33:32;;;;;;;31.48;23.17;;;;;;;18.27;100.00;165346.16;4993137;28;20026;-60
2022/09/12 08:36:27;;;;;;;29.35;22.48;;;;;;;18.10;100.00;165300.03;4991095;28;20042;-61
2022/09/12 08:38:58;;;;;;;31.88;23.27;;;;;;;18.18;100.00;165321.72;4986330;28;20552;-61
2022/09/12 08:41:42;;;;;;;38.10;25.42;;;;;;;18.36;100.00;165370.50;4992650;28;20023;-60
2022/09/12 08:44:40;;;;;;;48.67;22.15;;;;;;;18.63;100.00;165441.06;4990783;28;20058;-60
2022/09/12 08:47:20;;;;;;;26.13;21.50;;;;;;;18.92;100.00;165517.06;4992376;28;20022;-61
2022/09/12 08:50:09;;;;;;;25.83;22.73;;;;;;;19.22;100.00;165595.72;4991281;28;20042;-60
2022/09/12 08:52:58;;;;;;;30.65;21.88;;;;;;;19.30;100.00;165617.44;4992376;28;20022;-58
2022/09/12 08:55:52;;;;;;;31.75;21.80;;;;;;;19.59;100.00;165693.41;4991019;28;20125;-60
2022/09/12 08:58:22;;;;;;;25.15;22.45;;;;;;;19.73;100.00;165728.69;4990037;28;20113;-61
2022/09/12 09:01:07;;;;;;;25.67;20.52;;;;;;;19.49;100.00;165667.66;4990568;28;20064;-60
2022/09/12 09:04:05;;;;;;;26.58;20.10;;;;;;;19.63;100.00;165704.25;4991177;28;20385;-60
2022/09/12 09:06:47;;;;;;;30.15;21.70;;;;;;;19.91;100.00;165777.63;4992305;28;20030;-61
2022/09/12 09:09:24;;;;;;;27.27;21.08;;;;;;;20.07;100.00;165819.66;4990379;28;20049;-61
2022/09/12 09:12:13;;;;;;;25.83;20.00;;;;;;;20.53;100.00;165940.44;4992277;28;20528;-60
2022/09/12 09:14:56;;;;;;;24.15;19.55;;;;;;;20.58;100.00;165954.06;4989813;28;20041;-60
2022/09/12 09:17:29;;;;;;;25.10;20.42;;;;;;;20.67;100.00;165975.75;4992084;28;20030;-60
2022/09/12 09:20:03;;;;;;;27.77;20.45;;;;;;;20.59;100.00;165956.72;4990296;28;20038;-60
2022/09/12 09:22:41;;;;;;;29.85;21.75;;;;;;;20.44;100.00;165916.00;4992008;28;20030;-60
2022/09/12 09:25:19;;;;;;;24.17;18.40;;;;;;;20.68;100.00;165979.84;4990237;28;20533;-60
2022/09/12 09:27:58;;;;;;;25.65;19.67;;;;;;;20.89;100.00;166035.53;4992071;28;20029;-61
2022/09/12 09:30:24;;;;;;;24.85;20.33;;;;;;;21.03;100.00;166070.88;4990140;28;20054;-60
2022/09/12 09:33:00;;;;;;;25.73;19.70;;;;;;;21.03;100.00;166070.88;4991850;28;20651;-61
2022/09/12 09:35:43;;;;;;;24.40;20.35;;;;;;;21.14;100.00;166100.72;4990324;28;20058;-61
2022/09/12 09:38:23;;;;;;;31.75;20.58;;;;;;;21.28;100.00;166136.03;4991578;28;20041;-60
2022/09/12 09:41:05;;;;;;;23.73;18.52;;;;;;;21.11;100.00;166092.56;4985293;28;20049;-60
2022/09/12 09:43:31;;;;;;;26.30;17.77;;;;;;;21.16;100.00;166104.78;5008050;28;20103;-61
2022/09/12 09:45:59;;;;;;;26.15;18.88;;;;;;;21.24;100.00;166127.91;5011190;28;20018;-60
2022/09/12 09:48:28;;;;;;;23.60;19.23;;;;;;;21.50;100.00;166195.78;4992842;28;20058;-60
2022/09/12 09:50:59;;;;;;;28.52;20.02;;;;;;;21.85;100.00;166288.25;4989689;28;20047;-60
2022/09/12 09:53:54;;;;;;;24.77;18.88;;;;;;;22.08;100.00;166347.97;4991860;28;20105;-60
2022/09/12 09:56:34;;;;;;;21.83;17.52;;;;;;;22.25;100.00;166391.44;4990184;28;20295;-61
2022/09/12 09:59:11;;;;;;;27.10;18.42;;;;;;;22.44;100.00;166443.16;4989743;28;20439;-60
2022/09/12 10:01:46;;;;;;;18.27;16.30;;;;;;;22.56;100.00;166474.44;4991703;28;20030;-60
2022/09/12 10:04:23;;;;;;;21.77;18.33;;;;;;;22.82;100.00;166543.69;4990230;28;20038;-60
2022/09/12 10:06:53;;;;;;;22.30;18.00;;;;;;;23.04;100.00;166600.81;4990948;28;20031;-60
2022/09/12 10:09:31;;;;;;;19.92;16.90;;;;;;;23.08;100.00;166611.66;4989419;28;20042;-60
2022/09/12 10:11:58;;;;;;;22.33;18.38;;;;;;;23.28;100.00;166663.34;4991053;28;20039;-60
2022/09/12 10:14:33;;;;;;;21.25;17.77;;;;;;;23.36;100.00;166685.13;4989920;28;20047;-60
2022/09/12 10:16:59;;;;;;;17.73;14.52;;;;;;;23.72;100.00;166780.28;4990758;28;20048;-60
2022/09/12 10:19:36;;;;;;;19.70;15.30;;;;;;;23.68;100.00;166768.09;4989810;28;20502;-60
2022/09/12 10:22:04;;;;;;;19.10;16.08;;;;;;;23.74;100.00;166785.72;4984249;28;20034;-60
2022/09/12 10:24:35;;;;;;;20.23;16.40;;;;;;;23.76;100.00;166791.19;4989862;28;20050;-60
2022/09/12 10:27:20;;;;;;;17.70;15.65;;;;;;;23.74;100.00;166785.72;4994435;28;20030;-60
2022/09/12 10:29:50;;;;;;;20.38;16.90;;;;;;;23.55;100.00;166734.06;4992583;28;20058;-59
2022/09/12 10:32:35;;;;;;;17.77;14.65;;;;;;;23.71;100.00;166777.59;4994590;28;20034;-60
2022/09/12 10:35:18;;;;;;;17.08;14.55;;;;;;;23.86;100.00;166815.66;4993504;28;20419;-60
2022/09/12 10:37:53;;;;;;;21.90;13.35;;;;;;;23.91;100.00;166829.25;4994989;28;20437;-60
2022/09/12 10:40:36;;;;;;;17.13;13.15;;;;;;;23.75;100.00;166787.13;4993530;28;20045;-59
2022/09/12 10:43:15;;;;;;;16.83;12.30;;;;;;;23.52;100.00;166727.28;4994451;28;20019;-60
2022/09/12 10:45:41;;;;;;;16.50;11.65;;;;;;;23.70;100.00;166773.47;4993507;28;20058;-60
2022/09/12 10:48:46;;;;;;;20.95;12.63;;;;;;;23.90;100.00;166826.53;4994863;28;20058;-60
2022/09/12 10:51:26;;;;;;;15.32;11.55;;;;;;;23.79;100.00;166796.63;4990375;28;20109;-60
2022/09/12 10:53:58;;;;;;;13.13;11.73;;;;;;;23.96;100.00;166842.88;4990586;28;20593;-60
2022/09/12 10:56:28;;;;;;;14.50;10.73;;;;;;;24.12;100.00;166883.69;4993630;28;20034;-60
2022/09/12 10:59:02;;;;;;;10.57;9.48;;;;;;;24.28;100.00;166927.22;4992719;28;20088;-60
2022/09/12 11:01:40;;;;;;;10.75;9.68;;;;;;;24.51;100.00;166987.06;4994619;28;20489;-60
2022/09/12 11:04:17;;;;;;;;;;;;;;;24.62;100.00;167016.97;4993564;28;20552;-60
2022/09/12 11:06:55;;;;;;;9.80;8.80;;;;;;;24.56;100.00;167000.66;4994278;28;19957;-60
2022/09/12 11:09:36;;;;;;;13.93;9.45;;;;;;;24.37;100.00;166951.72;4993158;28;20042;-60
2022/09/12 11:12:19;;;;;;;12.05;10.15;;;;;;;24.25;100.00;166919.03;4994117;28;20554;-61
2022/09/12 11:15:19;;;;;;;12.65;10.75;;;;;;;24.43;100.00;166966.63;4993104;28;20038;-60
2022/09/12 11:17:59;;;;;;;9.35;6.45;;;;;;;24.61;100.00;167014.25;4994612;28;20040;-60
2022/09/12 11:21:02;;;;;;;12.10;7.75;;;;;;;24.52;100.00;166989.78;4991398;28;20409;-60
2022/09/12 11:23:46;;;;;;;9.88;6.80;;;;;;;24.23;100.00;166913.63;4994286;28;20031;-60